sensor_id;sensor_type;location;lat;lon;timestamp;P1;durP1;ratioP1;P2;durP2;ratioP2
52494;SDS011;38405;53.212;5.660;2023-10-13T15:52:39;792.72;;;416.70;;
52494;SDS011;38405;53.212;5.660;2023-10-13T15:55:11;965.95;;;697.10;;
52494;SDS011;38405;53.212;5.660;2023-10-13T15:57:40;824.25;;;701.25;;
52494;SDS011;38405;53.212;5.660;2023-10-13T16:00:08;669.85;;;545.20;;
52494;SDS011;38405;53.212;5.660;2023-10-13T16:02:51;1080.40;;;768.73;;
52494;SDS011;38405;53.212;5.660;2023-10-13T16:05:22;1056.57;;;795.28;;
52494;SDS011;38405;53.212;5.660;2023-10-13T16:07:50;870.67;;;676.20;;
52494;SDS011;38405;53.212;5.660;2023-10-13T16:10:17;1221.13;;;794.72;;
52494;SDS011;38405;53.212;5.660;2023-10-13T16:12:46;1011.40;;;804.47;;
52494;SDS011;38405;53.212;5.660;2023-10-13T16:15:12;698.45;;;512.08;;
52494;SDS011;38405;53.212;5.660;2023-10-13T16:17:40;668.50;;;540.75;;
52494;SDS011;38405;53.212;5.660;2023-10-13T16:20:07;892.50;;;770.13;;
52494;SDS011;38405;53.212;5.660;2023-10-13T16:22:45;802.00;;;684.38;;
52494;SDS011;38405;53.212;5.660;2023-10-13T16:25:13;736.50;;;540.85;;
52494;SDS011;38405;53.212;5.660;2023-10-13T16:27:41;313.50;;;281.13;;
52494;SDS011;38405;53.212;5.660;2023-10-13T16:30:11;396.02;;;353.52;;
52494;SDS011;38405;53.212;5.660;2023-10-13T16:32:43;424.88;;;379.15;;
52494;SDS011;38405;53.212;5.660;2023-10-13T16:35:13;730.80;;;417.98;;
52494;SDS011;38405;53.212;5.660;2023-10-13T16:37:41;753.13;;;671.60;;
52494;SDS011;38405;53.212;5.660;2023-10-13T16:40:14;881.35;;;667.40;;
52494;SDS011;38405;53.212;5.660;2023-10-13T16:42:40;986.45;;;766.53;;
52494;SDS011;38405;53.212;5.660;2023-10-13T16:45:06;798.53;;;702.83;;
52494;SDS011;38405;53.212;5.660;2023-10-13T16:47:45;772.95;;;692.55;;
52494;SDS011;38405;53.212;5.660;2023-10-13T16:50:11;1114.20;;;782.90;;
52494;SDS011;38405;53.212;5.660;2023-10-13T16:52:44;610.80;;;392.35;;
52494;SDS011;38405;53.212;5.660;2023-10-13T16:55:17;922.63;;;754.83;;
52494;SDS011;38405;53.212;5.660;2023-10-13T16:57:44;738.35;;;654.90;;
52494;SDS011;38405;53.212;5.660;2023-10-13T17:00:15;698.78;;;477.70;;
52494;SDS011;38405;53.212;5.660;2023-10-13T17:02:50;679.63;;;608.63;;
52494;SDS011;38405;53.212;5.660;2023-10-13T17:05:17;878.95;;;742.83;;
52494;SDS011;38405;53.212;5.660;2023-10-13T17:07:44;853.25;;;732.75;;
52494;SDS011;38405;53.212;5.660;2023-10-13T17:10:13;641.78;;;564.30;;
52494;SDS011;38405;53.212;5.660;2023-10-13T17:12:43;718.38;;;639.30;;
52494;SDS011;38405;53.212;5.660;2023-10-13T17:15:09;828.50;;;672.13;;
52494;SDS011;38405;53.212;5.660;2023-10-13T17:17:44;914.75;;;722.03;;
52494;SDS011;38405;53.212;5.660;2023-10-13T17:20:14;741.95;;;582.03;;
52494;SDS011;38405;53.212;5.660;2023-10-13T17:22:42;600.33;;;536.03;;
52494;SDS011;38405;53.212;5.660;2023-10-13T17:25:08;618.08;;;559.67;;
52494;SDS011;38405;53.212;5.660;2023-10-13T17:27:40;778.25;;;683.78;;
52494;SDS011;38405;53.212;5.660;2023-10-13T17:30:08;486.83;;;437.23;;
52494;SDS011;38405;53.212;5.660;2023-10-13T17:32:35;624.33;;;562.03;;
52494;SDS011;38405;53.212;5.660;2023-10-13T17:35:01;412.15;;;368.65;;
52494;SDS011;38405;53.212;5.660;2023-10-13T17:37:28;418.20;;;377.55;;
52494;SDS011;38405;53.212;5.660;2023-10-13T17:39:59;755.67;;;674.80;;
52494;SDS011;38405;53.212;5.660;2023-10-13T17:42:25;824.20;;;704.10;;
52494;SDS011;38405;53.212;5.660;2023-10-13T17:44:52;520.17;;;462.80;;
52494;SDS011;38405;53.212;5.660;2023-10-13T17:47:18;606.90;;;546.33;;
52494;SDS011;38405;53.212;5.660;2023-10-13T17:49:45;625.90;;;557.95;;
52494;SDS011;38405;53.212;5.660;2023-10-13T17:52:11;605.97;;;544.70;;
52494;SDS011;38405;53.212;5.660;2023-10-13T17:54:38;725.03;;;646.33;;
52494;SDS011;38405;53.212;5.660;2023-10-13T17:57:03;490.98;;;442.20;;
52494;SDS011;38405;53.212;5.660;2023-10-13T17:59:32;453.58;;;405.38;;
52494;SDS011;38405;53.212;5.660;2023-10-13T18:01:58;528.22;;;475.30;;
52494;SDS011;38405;53.212;5.660;2023-10-13T18:04:25;653.80;;;583.45;;
52494;SDS011;38405;53.212;5.660;2023-10-13T18:06:52;602.78;;;537.22;;
52494;SDS011;38405;53.212;5.660;2023-10-13T18:09:20;517.08;;;463.27;;
52494;SDS011;38405;53.212;5.660;2023-10-13T18:11:47;410.52;;;371.13;;
52494;SDS011;38405;53.212;5.660;2023-10-13T18:14:13;679.30;;;609.50;;
52494;SDS011;38405;53.212;5.660;2023-10-13T18:16:41;525.70;;;473.90;;
52494;SDS011;38405;53.212;5.660;2023-10-13T18:19:06;278.33;;;251.65;;
52494;SDS011;38405;53.212;5.660;2023-10-13T18:21:36;755.78;;;671.30;;
52494;SDS011;38405;53.212;5.660;2023-10-13T18:24:02;502.75;;;450.05;;
52494;SDS011;38405;53.212;5.660;2023-10-13T18:26:28;488.30;;;441.00;;
52494;SDS011;38405;53.212;5.660;2023-10-13T18:28:55;670.63;;;596.75;;
52494;SDS011;38405;53.212;5.660;2023-10-13T18:31:23;729.95;;;621.53;;
52494;SDS011;38405;53.212;5.660;2023-10-13T18:33:49;637.78;;;575.65;;
52494;SDS011;38405;53.212;5.660;2023-10-13T18:36:22;736.85;;;622.08;;
52494;SDS011;38405;53.212;5.660;2023-10-13T18:38:49;669.25;;;603.15;;
52494;SDS011;38405;53.212;5.660;2023-10-13T18:41:19;540.13;;;488.92;;
52494;SDS011;38405;53.212;5.660;2023-10-13T18:43:47;858.30;;;691.17;;
52494;SDS011;38405;53.212;5.660;2023-10-13T18:46:15;574.05;;;521.15;;
52494;SDS011;38405;53.212;5.660;2023-10-13T18:48:45;576.35;;;462.77;;
52494;SDS011;38405;53.212;5.660;2023-10-13T18:51:12;424.38;;;383.98;;
52494;SDS011;38405;53.212;5.660;2023-10-13T18:53:39;359.48;;;325.15;;
52494;SDS011;38405;53.212;5.660;2023-10-13T18:58:35;529.70;;;477.55;;
52494;SDS011;38405;53.212;5.660;2023-10-13T19:01:24;571.40;;;511.65;;
52494;SDS011;38405;53.212;5.660;2023-10-13T19:03:52;642.70;;;578.05;;
52494;SDS011;38405;53.212;5.660;2023-10-13T19:06:39;552.70;;;496.05;;
52494;SDS011;38405;53.212;5.660;2023-10-13T19:09:06;807.40;;;639.40;;
52494;SDS011;38405;53.212;5.660;2023-10-13T19:11:36;854.63;;;683.08;;
52494;SDS011;38405;53.212;5.660;2023-10-13T19:14:05;724.47;;;646.28;;
52494;SDS011;38405;53.212;5.660;2023-10-13T19:16:35;562.70;;;505.95;;
52494;SDS011;38405;53.212;5.660;2023-10-13T19:19:04;752.20;;;644.45;;
52494;SDS011;38405;53.212;5.660;2023-10-13T19:21:30;872.15;;;684.92;;
52494;SDS011;38405;53.212;5.660;2023-10-13T19:24:02;737.50;;;609.80;;
52494;SDS011;38405;53.212;5.660;2023-10-13T19:26:30;582.28;;;520.38;;
52494;SDS011;38405;53.212;5.660;2023-10-13T19:29:00;707.20;;;630.35;;
52494;SDS011;38405;53.212;5.660;2023-10-13T19:31:29;839.97;;;696.78;;
52494;SDS011;38405;53.212;5.660;2023-10-13T19:33:56;424.63;;;382.65;;
52494;SDS011;38405;53.212;5.660;2023-10-13T19:36:29;557.10;;;504.63;;
52494;SDS011;38405;53.212;5.660;2023-10-13T19:38:59;654.00;;;589.38;;
52494;SDS011;38405;53.212;5.660;2023-10-13T19:41:27;586.15;;;525.67;;
52494;SDS011;38405;53.212;5.660;2023-10-13T19:43:56;543.15;;;488.20;;
52494;SDS011;38405;53.212;5.660;2023-10-13T19:46:31;590.35;;;529.35;;
52494;SDS011;38405;53.212;5.660;2023-10-13T19:48:58;556.60;;;500.15;;
52494;SDS011;38405;53.212;5.660;2023-10-13T19:51:28;641.70;;;576.10;;
52494;SDS011;38405;53.212;5.660;2023-10-13T19:53:56;567.28;;;509.52;;
52494;SDS011;38405;53.212;5.660;2023-10-13T19:56:23;493.65;;;444.45;;
52494;SDS011;38405;53.212;5.660;2023-10-13T19:58:49;490.50;;;442.80;;
52494;SDS011;38405;53.212;5.660;2023-10-13T20:01:19;649.33;;;580.83;;
52494;SDS011;38405;53.212;5.660;2023-10-13T20:03:47;583.28;;;526.03;;
52494;SDS011;38405;53.212;5.660;2023-10-13T20:06:14;564.67;;;505.33;;
52494;SDS011;38405;53.212;5.660;2023-10-13T20:08:45;617.35;;;533.00;;
52494;SDS011;38405;53.212;5.660;2023-10-13T20:11:14;760.60;;;651.78;;
52494;SDS011;38405;53.212;5.660;2023-10-13T20:13:44;611.03;;;550.38;;
52494;SDS011;38405;53.212;5.660;2023-10-13T20:16:18;468.48;;;420.67;;
52494;SDS011;38405;53.212;5.660;2023-10-13T20:18:47;966.45;;;713.50;;
52494;SDS011;38405;53.212;5.660;2023-10-13T20:21:14;793.13;;;669.78;;
52494;SDS011;38405;53.212;5.660;2023-10-13T20:23:43;666.63;;;565.22;;
52494;SDS011;38405;53.212;5.660;2023-10-13T20:26:08;703.95;;;555.78;;
52494;SDS011;38405;53.212;5.660;2023-10-13T20:28:38;722.58;;;642.85;;
52494;SDS011;38405;53.212;5.660;2023-10-13T20:31:05;449.88;;;408.38;;
52494;SDS011;38405;53.212;5.660;2023-10-13T20:33:30;1257.22;;;864.83;;
52494;SDS011;38405;53.212;5.660;2023-10-13T20:35:57;768.92;;;682.28;;
52494;SDS011;38405;53.212;5.660;2023-10-13T20:38:23;615.13;;;549.50;;
52494;SDS011;38405;53.212;5.660;2023-10-13T20:40:56;209.32;;;190.68;;
52494;SDS011;38405;53.212;5.660;2023-10-13T20:43:26;914.70;;;705.80;;
52494;SDS011;38405;53.212;5.660;2023-10-13T20:45:54;583.17;;;511.88;;
52494;SDS011;38405;53.212;5.660;2023-10-13T20:48:29;324.58;;;290.98;;
52494;SDS011;38405;53.212;5.660;2023-10-13T20:50:58;359.25;;;323.48;;
52494;SDS011;38405;53.212;5.660;2023-10-13T20:53:26;376.52;;;337.85;;
52494;SDS011;38405;53.212;5.660;2023-10-13T20:55:59;429.55;;;386.80;;
52494;SDS011;38405;53.212;5.660;2023-10-13T20:58:32;685.55;;;610.80;;
52494;SDS011;38405;53.212;5.660;2023-10-13T21:01:05;401.48;;;362.02;;
52494;SDS011;38405;53.212;5.660;2023-10-13T21:03:35;170.38;;;155.90;;
52494;SDS011;38405;53.212;5.660;2023-10-13T21:06:08;135.95;;;124.35;;
52494;SDS011;38405;53.212;5.660;2023-10-13T21:08:39;92.70;;;84.00;;
52494;SDS011;38405;53.212;5.660;2023-10-13T21:11:10;90.97;;;83.22;;
52494;SDS011;38405;53.212;5.660;2023-10-13T21:13:36;206.65;;;187.95;;
52494;SDS011;38405;53.212;5.660;2023-10-13T21:16:01;245.27;;;224.60;;
52494;SDS011;38405;53.212;5.660;2023-10-13T21:18:34;262.30;;;239.95;;
52494;SDS011;38405;53.212;5.660;2023-10-13T21:21:10;161.25;;;149.05;;
52494;SDS011;38405;53.212;5.660;2023-10-13T21:23:43;480.50;;;431.77;;
52494;SDS011;38405;53.212;5.660;2023-10-13T21:26:09;217.63;;;199.77;;
52494;SDS011;38405;53.212;5.660;2023-10-13T21:28:46;136.93;;;125.50;;
52494;SDS011;38405;53.212;5.660;2023-10-13T21:31:14;169.57;;;156.40;;
52494;SDS011;38405;53.212;5.660;2023-10-13T21:33:43;150.23;;;139.05;;
52494;SDS011;38405;53.212;5.660;2023-10-13T21:36:09;237.70;;;219.30;;
52494;SDS011;38405;53.212;5.660;2023-10-13T21:38:42;85.70;;;78.82;;
52494;SDS011;38405;53.212;5.660;2023-10-13T21:41:09;116.05;;;107.43;;
52494;SDS011;38405;53.212;5.660;2023-10-13T21:43:42;171.32;;;156.75;;
52494;SDS011;38405;53.212;5.660;2023-10-13T21:46:12;100.47;;;92.28;;
52494;SDS011;38405;53.212;5.660;2023-10-13T21:48:53;103.15;;;94.35;;
52494;SDS011;38405;53.212;5.660;2023-10-13T21:51:19;145.87;;;134.17;;
52494;SDS011;38405;53.212;5.660;2023-10-13T21:53:49;172.65;;;158.52;;
52494;SDS011;38405;53.212;5.660;2023-10-13T21:56:20;161.93;;;149.07;;
52494;SDS011;38405;53.212;5.660;2023-10-13T21:58:49;113.57;;;104.55;;
52494;SDS011;38405;53.212;5.660;2023-10-13T22:01:15;129.85;;;118.28;;
52494;SDS011;38405;53.212;5.660;2023-10-13T22:03:47;142.68;;;129.65;;
52494;SDS011;38405;53.212;5.660;2023-10-13T22:06:14;274.48;;;248.18;;
52494;SDS011;38405;53.212;5.660;2023-10-13T22:08:40;69.60;;;63.55;;
52494;SDS011;38405;53.212;5.660;2023-10-13T22:11:07;116.43;;;107.07;;
52494;SDS011;38405;53.212;5.660;2023-10-13T22:13:33;178.93;;;162.73;;
52494;SDS011;38405;53.212;5.660;2023-10-13T22:16:05;82.63;;;75.88;;
52494;SDS011;38405;53.212;5.660;2023-10-13T22:18:38;144.05;;;132.68;;
52494;SDS011;38405;53.212;5.660;2023-10-13T22:21:06;122.45;;;112.57;;
52494;SDS011;38405;53.212;5.660;2023-10-13T22:23:32;244.13;;;222.82;;
52494;SDS011;38405;53.212;5.660;2023-10-13T22:25:58;112.60;;;103.85;;
52494;SDS011;38405;53.212;5.660;2023-10-13T22:28:24;203.43;;;186.65;;
52494;SDS011;38405;53.212;5.660;2023-10-13T22:30:50;93.47;;;85.97;;
52494;SDS011;38405;53.212;5.660;2023-10-13T22:33:16;245.82;;;225.52;;
52494;SDS011;38405;53.212;5.660;2023-10-13T22:35:41;127.80;;;117.63;;
52494;SDS011;38405;53.212;5.660;2023-10-13T22:38:07;346.77;;;313.77;;
52494;SDS011;38405;53.212;5.660;2023-10-13T22:40:33;157.52;;;143.75;;
52494;SDS011;38405;53.212;5.660;2023-10-13T22:43:02;305.70;;;278.25;;
52494;SDS011;38405;53.212;5.660;2023-10-13T22:45:28;321.00;;;291.75;;
52494;SDS011;38405;53.212;5.660;2023-10-13T22:47:56;515.40;;;463.05;;
52494;SDS011;38405;53.212;5.660;2023-10-13T22:50:22;282.58;;;256.40;;
52494;SDS011;38405;53.212;5.660;2023-10-13T22:52:50;187.40;;;172.10;;
52494;SDS011;38405;53.212;5.660;2023-10-13T22:55:16;118.78;;;110.05;;
52494;SDS011;38405;53.212;5.660;2023-10-13T22:57:46;154.23;;;141.70;;
52494;SDS011;38405;53.212;5.660;2023-10-13T23:00:12;131.70;;;121.40;;
52494;SDS011;38405;53.212;5.660;2023-10-13T23:02:38;183.75;;;168.45;;
52494;SDS011;38405;53.212;5.660;2023-10-13T23:05:06;104.70;;;96.30;;
52494;SDS011;38405;53.212;5.660;2023-10-13T23:07:47;200.57;;;183.85;;
52494;SDS011;38405;53.212;5.660;2023-10-13T23:10:25;101.40;;;92.75;;
52494;SDS011;38405;53.212;5.660;2023-10-13T23:12:59;271.38;;;246.32;;
52494;SDS011;38405;53.212;5.660;2023-10-13T23:15:24;308.92;;;278.33;;
52494;SDS011;38405;53.212;5.660;2023-10-13T23:17:50;244.90;;;222.73;;
52494;SDS011;38405;53.212;5.660;2023-10-13T23:20:17;372.15;;;337.23;;
52494;SDS011;38405;53.212;5.660;2023-10-13T23:22:45;106.43;;;96.85;;
52494;SDS011;38405;53.212;5.660;2023-10-13T23:25:10;262.73;;;237.25;;
52494;SDS011;38405;53.212;5.660;2023-10-13T23:27:36;129.15;;;118.55;;
52494;SDS011;38405;53.212;5.660;2023-10-13T23:30:02;222.45;;;203.25;;
52494;SDS011;38405;53.212;5.660;2023-10-13T23:32:28;74.43;;;67.95;;
52494;SDS011;38405;53.212;5.660;2023-10-13T23:34:54;103.57;;;95.13;;
52494;SDS011;38405;53.212;5.660;2023-10-13T23:37:23;86.80;;;79.47;;
52494;SDS011;38405;53.212;5.660;2023-10-13T23:39:55;87.17;;;79.23;;
52494;SDS011;38405;53.212;5.660;2023-10-13T23:42:25;91.85;;;84.13;;
52494;SDS011;38405;53.212;5.660;2023-10-13T23:44:50;95.38;;;87.60;;
52494;SDS011;38405;53.212;5.660;2023-10-13T23:47:16;130.55;;;119.45;;
52494;SDS011;38405;53.212;5.660;2023-10-13T23:49:51;173.40;;;159.00;;
52494;SDS011;38405;53.212;5.660;2023-10-13T23:52:16;151.30;;;138.48;;
52494;SDS011;38405;53.212;5.660;2023-10-13T23:54:45;146.73;;;134.60;;
52494;SDS011;38405;53.212;5.660;2023-10-13T23:57:19;156.77;;;144.05;;
52494;SDS011;38405;53.212;5.660;2023-10-13T23:59:48;210.52;;;190.95;;
